createdAt,value
2017-11-08T00:00:23.627Z,97109.90
2017-11-08T00:02:51.157Z,97111.36
2017-11-08T00:05:18.762Z,97116.45
2017-11-08T00:07:46.320Z,97118.27
2017-11-08T00:10:13.862Z,97117.78
2017-11-08T00:12:41.559Z,97118.40
2017-11-08T00:15:09.082Z,97124.11
2017-11-08T00:17:39.368Z,97118.66
2017-11-08T00:20:06.946Z,97124.94
2017-11-08T00:22:34.471Z,97128.59
2017-11-08T00:25:01.999Z,97122.43
2017-11-08T00:27:29.782Z,97120.00
2017-11-08T00:29:57.307Z,97110.45
2017-11-08T00:32:24.834Z,97099.86
2017-11-08T00:34:52.440Z,97074.25
2017-11-08T00:37:20.004Z,97061.85
2017-11-08T00:39:47.558Z,97057.72
2017-11-08T00:42:15.262Z,97054.02
2017-11-08T00:44:42.786Z,97060.15
2017-11-08T00:47:10.336Z,97067.05
2017-11-08T00:49:38.108Z,97070.95
2017-11-08T00:52:05.660Z,97079.08
2017-11-08T00:54:33.220Z,97088.53
2017-11-08T00:57:00.983Z,97097.92
2017-11-08T00:59:28.545Z,97095.39
2017-11-08T01:01:56.061Z,97094.62
2017-11-08T01:04:24.702Z,97098.16
2017-11-08T01:06:52.244Z,97104.23
2017-11-08T01:09:20.724Z,97101.81
2017-11-08T01:11:48.411Z,97106.73
2017-11-08T01:14:15.949Z,97098.67
2017-11-08T01:16:43.467Z,97100.45
2017-11-08T01:19:11.147Z,97104.21
2017-11-08T01:21:38.675Z,97101.48
2017-11-08T01:24:06.207Z,97099.83
2017-11-08T01:26:33.935Z,97098.56
2017-11-08T01:29:01.452Z,97096.41
2017-11-08T01:31:28.971Z,97094.88
2017-11-08T01:33:56.711Z,97085.91
2017-11-08T01:36:24.235Z,97093.89
2017-11-08T01:38:51.766Z,97089.77
2017-11-08T01:41:25.526Z,97082.68
2017-11-08T01:43:54.943Z,97081.45
2017-11-08T01:46:22.517Z,97081.79
2017-11-08T01:48:50.072Z,97085.95
2017-11-08T01:51:18.548Z,97084.38
2017-11-08T01:53:46.070Z,97079.81
2017-11-08T01:56:13.767Z,97081.55
2017-11-08T01:58:41.327Z,97078.95
2017-11-08T02:01:08.847Z,97079.14
2017-11-08T02:03:36.650Z,97081.79
2017-11-08T02:06:04.187Z,97083.33
2017-11-08T02:08:31.714Z,97082.41
2017-11-08T02:10:59.531Z,97086.17
2017-11-08T02:13:27.092Z,97085.23
2017-11-08T02:15:56.607Z,97090.39
2017-11-08T02:18:24.361Z,97084.45
2017-11-08T02:20:51.882Z,97083.63
2017-11-08T02:23:19.403Z,97076.08
2017-11-08T02:25:47.140Z,97083.97
2017-11-08T02:28:17.163Z,97089.47
2017-11-08T02:30:44.679Z,97081.20
2017-11-08T02:33:15.323Z,97082.00
2017-11-08T02:35:42.837Z,97080.81
2017-11-08T02:38:10.365Z,97080.20
2017-11-08T02:40:38.151Z,97083.02
2017-11-08T02:43:09.498Z,97088.97
2017-11-08T02:45:37.037Z,97088.03
2017-11-08T02:48:05.001Z,97082.34
2017-11-08T02:50:32.561Z,97087.36
2017-11-08T02:53:00.120Z,97086.09
2017-11-08T02:55:27.695Z,97083.35
2017-11-08T02:57:55.214Z,97079.22
2017-11-08T03:00:22.737Z,97087.76
2017-11-08T03:02:51.368Z,97085.76
2017-11-08T03:05:18.940Z,97084.32
2017-11-08T03:07:46.498Z,97083.17
2017-11-08T03:10:14.365Z,97083.63
2017-11-08T03:12:41.925Z,97084.49
2017-11-08T03:15:09.491Z,97081.23
2017-11-08T03:17:37.355Z,97087.22
2017-11-08T03:22:31.754Z,97082.45
2017-11-08T03:24:59.330Z,97091.98
2017-11-08T03:27:26.868Z,97087.59
2017-11-08T03:29:54.429Z,97086.50
2017-11-08T03:32:22.191Z,97086.73
2017-11-08T03:34:49.752Z,97086.38
2017-11-08T03:37:17.275Z,97085.19
2017-11-08T03:39:44.975Z,97091.54
2017-11-08T03:42:12.536Z,97093.36
2017-11-08T03:44:40.125Z,97092.17
2017-11-08T03:47:07.750Z,97096.90
2017-11-08T03:49:35.310Z,97095.09
2017-11-08T03:52:02.869Z,97092.73
2017-11-08T03:54:30.633Z,97089.44
2017-11-08T03:56:58.193Z,97088.89
2017-11-08T03:59:25.752Z,97094.83
2017-11-08T04:01:53.307Z,97085.75
2017-11-08T04:04:20.870Z,97086.70
2017-11-08T04:06:48.437Z,97086.50
2017-11-08T04:09:16.004Z,97084.70
2017-11-08T04:11:44.467Z,97084.72
2017-11-08T04:14:12.040Z,97080.89
2017-11-08T04:16:39.775Z,97077.17
2017-11-08T04:19:07.298Z,97079.92
2017-11-08T04:21:34.819Z,97073.92
2017-11-08T04:24:02.775Z,97084.08
2017-11-08T04:26:30.340Z,97082.15
2017-11-08T04:28:57.893Z,97085.59
2017-11-08T04:31:26.374Z,97084.22
2017-11-08T04:33:55.071Z,97088.77
2017-11-08T04:36:23.337Z,97086.66
2017-11-08T04:38:51.079Z,97089.81
2017-11-08T04:41:18.595Z,97089.67
2017-11-08T04:43:46.114Z,97085.66
2017-11-08T04:46:13.967Z,97086.45
2017-11-08T04:48:41.486Z,97084.65
2017-11-08T04:51:08.998Z,97089.55
2017-11-08T04:53:36.552Z,97085.53
2017-11-08T04:56:04.118Z,97089.28
2017-11-08T04:58:31.649Z,97094.25
2017-11-08T05:00:59.336Z,97091.41
2017-11-08T05:03:26.862Z,97095.17
2017-11-08T05:05:54.390Z,97096.27
2017-11-08T05:08:22.221Z,97092.86
2017-11-08T05:10:49.777Z,97094.38
2017-11-08T05:13:17.336Z,97103.94
2017-11-08T05:15:45.206Z,97103.11
2017-11-08T05:18:12.762Z,97105.50
2017-11-08T05:20:41.349Z,97110.44
2017-11-08T05:23:09.194Z,97108.52
2017-11-08T05:25:36.727Z,97105.56
2017-11-08T05:28:04.278Z,97103.41
2017-11-08T05:30:31.830Z,97104.47
2017-11-08T05:32:59.352Z,97109.96
2017-11-08T05:37:54.448Z,97116.48
2017-11-08T05:40:22.143Z,97117.10
2017-11-08T05:42:49.911Z,97119.56
2017-11-08T05:45:17.986Z,97120.13
2017-11-08T05:47:45.528Z,97122.13
2017-11-08T05:50:13.077Z,97125.47
2017-11-08T05:52:40.720Z,97127.27
2017-11-08T05:55:08.226Z,97126.87
2017-11-08T05:57:35.789Z,97130.97
2017-11-08T06:00:03.506Z,97133.48
2017-11-08T06:02:31.054Z,97135.84
2017-11-08T06:04:58.562Z,97139.10
2017-11-08T06:07:26.503Z,97137.61
2017-11-08T06:09:54.064Z,97135.41
2017-11-08T06:12:21.621Z,97137.64
2017-11-08T06:14:49.589Z,97147.12
2017-11-08T06:17:17.126Z,97144.51
2017-11-08T06:19:44.709Z,97147.22
2017-11-08T06:22:12.264Z,97155.83
2017-11-08T06:24:39.827Z,97159.99
2017-11-08T06:27:07.386Z,97148.97
2017-11-08T06:29:35.149Z,97161.03
2017-11-08T06:32:02.710Z,97152.83
2017-11-08T06:34:30.231Z,97160.66
2017-11-08T06:36:57.787Z,97163.75
2017-11-08T06:39:25.310Z,97161.41
2017-11-08T06:41:52.861Z,97172.92
2017-11-08T06:44:20.606Z,97166.44
2017-11-08T06:46:48.114Z,97173.35
2017-11-08T06:49:15.627Z,97174.48
2017-11-08T06:51:49.818Z,97173.03
2017-11-08T06:54:17.335Z,97176.75
2017-11-08T06:56:44.854Z,97188.45
2017-11-08T06:59:12.522Z,97184.29
2017-11-08T07:01:40.075Z,97179.00
2017-11-08T07:04:07.590Z,97183.05
2017-11-08T07:06:36.927Z,97187.14
2017-11-08T07:09:04.491Z,97193.77
2017-11-08T07:11:32.053Z,97193.59
2017-11-08T07:13:59.610Z,97188.05
2017-11-08T07:16:27.122Z,97195.40
2017-11-08T07:18:54.635Z,97192.80
2017-11-08T07:21:22.413Z,97200.44
2017-11-08T07:23:49.957Z,97205.67
2017-11-08T07:26:17.508Z,97210.19
2017-11-08T07:28:45.292Z,97203.48
2017-11-08T07:31:12.831Z,97208.14
2017-11-08T07:33:40.342Z,97215.17
2017-11-08T07:36:08.210Z,97215.84
2017-11-08T07:38:35.734Z,97219.72
2017-11-08T07:41:03.276Z,97214.58
2017-11-08T07:43:30.837Z,97219.23
2017-11-08T07:45:58.392Z,97214.92
2017-11-08T07:48:25.951Z,97212.91
2017-11-08T07:50:54.138Z,97216.05
2017-11-08T07:53:21.651Z,97223.71
2017-11-08T07:55:54.951Z,97217.83
2017-11-08T07:58:22.466Z,97218.04
2017-11-08T08:00:49.992Z,97225.97
2017-11-08T08:03:17.773Z,97226.91
2017-11-08T08:05:45.314Z,97229.66
2017-11-08T08:08:12.822Z,97232.27
2017-11-08T08:10:40.614Z,97232.69
2017-11-08T08:13:08.126Z,97232.15
2017-11-08T08:15:36.576Z,97234.77
2017-11-08T08:18:04.427Z,97234.16
2017-11-08T08:20:31.939Z,97232.40
2017-11-08T08:22:59.469Z,97234.50
2017-11-08T08:25:27.120Z,97235.82
2017-11-08T08:27:54.689Z,97237.22
2017-11-08T08:30:22.240Z,97240.94
2017-11-08T08:32:51.013Z,97235.52
2017-11-08T08:35:18.543Z,97237.98
2017-11-08T08:37:46.063Z,97239.00
2017-11-08T08:40:13.784Z,97240.68
2017-11-08T08:42:41.299Z,97241.92
2017-11-08T08:45:09.054Z,97249.04
2017-11-08T08:47:36.618Z,97251.98
2017-11-08T08:50:04.130Z,97255.88
2017-11-08T08:52:31.639Z,97258.17
2017-11-08T08:54:59.465Z,97262.22
2017-11-08T08:57:26.978Z,97262.53
2017-11-08T08:59:54.495Z,97264.50
2017-11-08T09:02:24.907Z,97266.45
2017-11-08T09:04:52.467Z,97267.73
2017-11-08T09:07:20.040Z,97267.09
2017-11-08T09:09:47.584Z,97275.62
2017-11-08T09:12:15.092Z,97271.32
2017-11-08T09:14:42.610Z,97273.85
2017-11-08T09:17:10.263Z,97276.67
2017-11-08T09:19:37.821Z,97282.02
2017-11-08T09:22:05.382Z,97278.61
2017-11-08T09:24:34.885Z,97283.08
2017-11-08T09:27:04.289Z,97286.74
2017-11-08T09:29:34.743Z,97289.23
2017-11-08T09:32:02.291Z,97289.89
2017-11-08T09:34:29.843Z,97292.72
2017-11-08T09:36:57.486Z,97295.51
2017-11-08T09:39:25.057Z,97302.02
2017-11-08T09:41:56.093Z,97302.70
2017-11-08T09:44:23.857Z,97306.44
2017-11-08T09:46:51.438Z,97306.98
2017-11-08T09:49:18.975Z,97308.32
2017-11-08T09:51:47.366Z,97305.86
2017-11-08T09:54:14.915Z,97307.61
2017-11-08T09:56:42.475Z,97305.23
2017-11-08T09:59:12.078Z,97297.24
2017-11-08T10:01:42.553Z,97292.87
2017-11-08T10:04:10.084Z,97292.82
2017-11-08T10:06:40.599Z,97290.73
2017-11-08T10:09:08.154Z,97289.30
2017-11-08T10:11:38.683Z,97294.61
2017-11-08T10:14:07.271Z,97298.17
2017-11-08T10:16:34.825Z,97296.18
2017-11-08T10:19:03.140Z,97300.38
2017-11-08T10:21:30.658Z,97295.93
2017-11-08T10:23:59.036Z,97294.17
2017-11-08T10:26:26.720Z,97296.91
2017-11-08T10:28:54.870Z,97300.24
2017-11-08T10:31:22.430Z,97300.39
2017-11-08T10:33:49.938Z,97306.00
2017-11-08T10:36:17.549Z,97304.02
2017-11-08T10:38:45.125Z,97306.64
2017-11-08T10:41:12.666Z,97303.75
2017-11-08T10:43:40.600Z,97305.95
2017-11-08T10:46:09.080Z,97307.17
2017-11-08T10:48:37.497Z,97304.34
2017-11-08T10:51:05.222Z,97311.64
2017-11-08T10:53:32.736Z,97304.36
2017-11-08T10:56:00.270Z,97309.16
2017-11-08T10:58:28.055Z,97313.62
2017-11-08T11:01:10.392Z,97310.77
2017-11-08T11:03:38.275Z,97314.98
2017-11-08T11:06:05.854Z,97326.92
2017-11-08T11:08:33.386Z,97331.59
2017-11-08T11:11:01.199Z,97328.56
2017-11-08T11:13:28.727Z,97331.20
2017-11-08T11:15:58.019Z,97329.02
2017-11-08T11:18:25.987Z,97332.84
2017-11-08T11:20:54.304Z,97332.91
2017-11-08T11:23:21.819Z,97325.17
2017-11-08T11:25:51.243Z,97332.17
2017-11-08T11:28:18.785Z,97325.23
2017-11-08T11:30:46.450Z,97328.88
2017-11-08T11:33:14.215Z,97328.67
2017-11-08T11:35:41.751Z,97321.83
2017-11-08T11:38:11.134Z,97323.73
2017-11-08T11:40:38.841Z,97321.27
2017-11-08T11:43:06.403Z,97325.13
2017-11-08T11:45:33.960Z,97315.23
2017-11-08T11:48:01.704Z,97314.87
2017-11-08T11:50:32.168Z,97314.59
2017-11-08T11:52:59.698Z,97316.91
2017-11-08T11:55:27.353Z,97321.03
2017-11-08T11:57:54.878Z,97322.41
2017-11-08T12:00:22.440Z,97321.45
2017-11-08T12:02:50.000Z,97327.77
2017-11-08T12:05:17.533Z,97330.97
2017-11-08T12:07:45.076Z,97328.77
2017-11-08T12:10:12.940Z,97330.48
2017-11-08T12:12:40.495Z,97334.05
2017-11-08T12:15:08.058Z,97342.31
2017-11-08T12:17:35.820Z,97335.63
2017-11-08T12:20:03.383Z,97343.61
2017-11-08T12:22:30.944Z,97347.64
2017-11-08T12:25:00.345Z,97339.91
2017-11-08T12:27:32.508Z,97344.56
2017-11-08T12:30:00.579Z,97345.08
2017-11-08T12:32:28.650Z,97344.69
2017-11-08T12:34:59.282Z,97344.95
2017-11-08T12:37:27.840Z,97351.88
2017-11-08T12:39:58.189Z,97353.16
2017-11-08T12:42:26.466Z,97353.67
2017-11-08T12:47:54.036Z,97364.20
2017-11-08T12:50:21.789Z,97367.11
2017-11-08T12:52:49.320Z,97367.11
2017-11-08T12:55:16.851Z,97358.11
2017-11-08T12:57:46.328Z,97358.67
2017-11-08T13:00:13.839Z,97363.01
2017-11-08T13:02:41.359Z,97366.06
2017-11-08T13:05:08.923Z,97371.31
2017-11-08T13:07:36.447Z,97371.31
2017-11-08T13:10:03.959Z,97371.27
2017-11-08T13:12:32.707Z,97368.50
2017-11-08T13:15:00.696Z,97377.73
2017-11-08T13:17:28.240Z,97375.92
2017-11-08T13:19:56.106Z,97385.11
2017-11-08T13:22:23.665Z,97386.09
2017-11-08T13:24:51.328Z,97388.28
2017-11-08T13:27:18.991Z,97382.87
2017-11-08T13:29:47.061Z,97387.99
2017-11-08T13:32:14.586Z,97389.88
2017-11-08T13:34:42.426Z,97390.78
2017-11-08T13:37:10.047Z,97393.31
2017-11-08T13:39:37.579Z,97404.11
2017-11-08T13:42:05.368Z,97396.70
2017-11-08T13:44:32.891Z,97405.16
2017-11-08T13:47:00.423Z,97403.75
2017-11-08T13:49:27.983Z,97407.19
2017-11-08T13:51:55.504Z,97413.18
2017-11-08T13:54:23.019Z,97415.77
2017-11-08T13:56:50.576Z,97413.84
2017-11-08T13:59:18.125Z,97417.33
2017-11-08T14:01:45.743Z,97420.13
2017-11-08T14:04:13.405Z,97417.65
2017-11-08T14:06:41.113Z,97425.22
2017-11-08T14:09:08.625Z,97421.56
2017-11-08T14:11:36.189Z,97424.52
2017-11-08T14:14:03.766Z,97421.04
2017-11-08T14:16:31.304Z,97426.41
2017-11-08T14:18:58.869Z,97425.16
2017-11-08T14:21:26.421Z,97417.63
2017-11-08T14:23:53.982Z,97418.92
2017-11-08T14:26:21.684Z,97417.63
2017-11-08T14:28:49.204Z,97425.14
2017-11-08T14:31:16.726Z,97422.68
2017-11-08T14:33:44.507Z,97430.38
2017-11-08T14:36:12.020Z,97436.02
2017-11-08T14:38:39.547Z,97434.45
2017-11-08T14:41:07.311Z,97438.12
2017-11-08T14:43:34.865Z,97437.70
2017-11-08T14:46:02.424Z,97441.02
2017-11-08T14:48:30.173Z,97439.26
2017-11-08T14:50:57.690Z,97443.80
2017-11-08T14:53:31.677Z,97441.09
2017-11-08T14:56:00.136Z,97440.55
2017-11-08T14:58:29.552Z,97440.76
2017-11-08T15:01:00.267Z,97444.45
2017-11-08T15:03:27.787Z,97443.09
2017-11-08T15:05:55.305Z,97458.72
2017-11-08T15:08:22.855Z,97453.23
2017-11-08T15:10:50.408Z,97461.48
2017-11-08T15:13:18.069Z,97456.64
2017-11-08T15:15:45.843Z,97462.13
2017-11-08T15:18:13.391Z,97461.75
2017-11-08T15:20:40.957Z,97461.72
2017-11-08T15:23:08.692Z,97461.70
2017-11-08T15:25:36.208Z,97468.52
2017-11-08T15:28:03.735Z,97463.88
2017-11-08T15:30:31.311Z,97467.53
2017-11-08T15:32:58.850Z,97467.16
2017-11-08T15:35:26.408Z,97469.91
2017-11-08T15:37:54.187Z,97464.37
2017-11-08T15:40:27.277Z,97471.94
2017-11-08T15:42:54.823Z,97469.92
2017-11-08T15:45:22.387Z,97475.70
2017-11-08T15:47:49.908Z,97480.16
2017-11-08T15:50:17.659Z,97471.17
2017-11-08T15:52:45.186Z,97477.81
2017-11-08T15:55:12.703Z,97482.19
2017-11-08T15:57:40.271Z,97485.11
2017-11-08T16:00:07.845Z,97484.24
2017-11-08T16:05:35.864Z,97489.60
2017-11-08T16:08:03.686Z,97487.84
2017-11-08T16:10:34.234Z,97494.59
2017-11-08T16:13:01.882Z,97490.16
2017-11-08T16:15:29.645Z,97493.27
2017-11-08T16:17:57.183Z,97490.92
2017-11-08T16:20:24.815Z,97489.54
2017-11-08T16:22:52.591Z,97488.66
2017-11-08T16:25:20.115Z,97485.72
2017-11-08T16:27:47.664Z,97480.13
2017-11-08T16:30:15.717Z,97485.64
2017-11-08T16:32:43.377Z,97491.89
2017-11-08T16:35:11.969Z,97492.75
2017-11-08T16:37:39.827Z,97503.09
2017-11-08T16:40:07.419Z,97495.13
2017-11-08T16:42:35.075Z,97499.08
2017-11-08T16:45:02.915Z,97492.27
2017-11-08T16:47:30.576Z,97495.48
2017-11-08T16:49:58.103Z,97498.27
2017-11-08T16:52:25.901Z,97499.81
2017-11-08T16:54:53.577Z,97506.13
2017-11-08T16:57:21.141Z,97506.27
2017-11-08T16:59:50.117Z,97506.15
2017-11-08T17:02:18.635Z,97512.55
2017-11-08T17:04:49.438Z,97514.21
2017-11-08T17:07:19.103Z,97515.89
2017-11-08T17:09:47.058Z,97520.30
2017-11-08T17:12:15.596Z,97516.87
2017-11-08T17:14:43.352Z,97520.58
2017-11-08T17:17:10.919Z,97520.84
2017-11-08T17:19:38.469Z,97515.16
2017-11-08T17:22:06.047Z,97519.00
2017-11-08T17:24:33.612Z,97522.45
2017-11-08T17:27:01.150Z,97531.64
2017-11-08T17:29:28.707Z,97538.92
2017-11-08T17:31:56.266Z,97535.47
2017-11-08T17:34:23.928Z,97539.47
2017-11-08T17:36:51.691Z,97538.68
2017-11-08T17:39:19.240Z,97537.00
2017-11-08T17:41:46.756Z,97541.80
2017-11-08T17:44:14.304Z,97549.73
2017-11-08T17:46:41.864Z,97546.80
2017-11-08T17:49:09.381Z,97541.19
2017-11-08T17:51:37.182Z,97550.84
2017-11-08T17:54:04.724Z,97551.95
2017-11-08T17:56:32.253Z,97545.77
2017-11-08T17:59:00.070Z,97547.84
2017-11-08T18:01:27.690Z,97550.91
2017-11-08T18:03:55.353Z,97544.74
2017-11-08T18:06:23.122Z,97549.20
2017-11-08T18:08:50.984Z,97548.77
2017-11-08T18:11:18.644Z,97551.30
2017-11-08T18:13:46.566Z,97548.77
2017-11-08T18:16:14.473Z,97557.40
2017-11-08T18:18:42.363Z,97552.83
2017-11-08T18:21:10.499Z,97550.14
2017-11-08T18:23:38.386Z,97557.66
2017-11-08T18:26:06.254Z,97563.25
2017-11-08T18:28:34.239Z,97558.91
2017-11-08T18:31:01.904Z,97567.29
2017-11-08T18:33:29.624Z,97567.18
2017-11-08T18:35:57.387Z,97570.41
2017-11-08T18:38:24.978Z,97572.97
2017-11-08T18:40:52.537Z,97569.11
2017-11-08T18:43:20.397Z,97569.44
2017-11-08T18:45:47.947Z,97572.48
2017-11-08T18:48:15.718Z,97570.27
2017-11-08T18:50:43.889Z,97577.03
2017-11-08T18:53:11.653Z,97581.41
2017-11-08T18:55:39.520Z,97578.05
2017-11-08T18:58:07.450Z,97576.55
2017-11-08T19:00:35.150Z,97585.75
2017-11-08T19:03:02.982Z,97585.33
2017-11-08T19:05:31.101Z,97585.98
2017-11-08T19:07:58.934Z,97583.88
2017-11-08T19:10:26.639Z,97593.88
2017-11-08T19:12:55.124Z,97593.22
2017-11-08T19:15:22.943Z,97596.57
2017-11-08T19:17:50.828Z,97602.31
2017-11-08T19:20:18.708Z,97599.27
2017-11-08T19:22:46.413Z,97604.67
2017-11-08T19:25:14.234Z,97604.00
2017-11-08T19:27:42.396Z,97607.20
2017-11-08T19:30:10.263Z,97609.11
2017-11-08T19:32:38.140Z,97614.22
2017-11-08T19:35:06.200Z,97618.66
2017-11-08T19:37:34.067Z,97622.16
2017-11-08T19:40:01.837Z,97621.65
2017-11-08T19:42:29.902Z,97615.05
2017-11-08T19:44:58.141Z,97617.65
2017-11-08T19:47:25.843Z,97622.05
2017-11-08T19:49:53.602Z,97622.06
2017-11-08T19:52:21.477Z,97623.22
2017-11-08T19:54:50.260Z,97628.61
2017-11-08T19:57:18.548Z,97624.73
2017-11-08T19:59:46.499Z,97620.84
2017-11-08T20:02:14.295Z,97624.04
2017-11-08T20:04:42.147Z,97626.17
2017-11-08T20:07:09.967Z,97631.98
2017-11-08T20:09:37.786Z,97628.28
2017-11-08T20:12:05.836Z,97627.96
2017-11-08T20:14:33.699Z,97637.64
2017-11-08T20:17:01.564Z,97636.86
2017-11-08T20:19:30.359Z,97638.03
2017-11-08T20:21:58.137Z,97636.69
2017-11-08T20:24:26.098Z,97635.66
2017-11-08T20:26:54.163Z,97634.76
2017-11-08T20:29:21.944Z,97636.16
2017-11-08T20:31:50.839Z,97639.91
2017-11-08T20:34:18.893Z,97639.70
2017-11-08T20:36:46.747Z,97631.99
2017-11-08T20:39:14.734Z,97643.80
2017-11-08T20:41:42.652Z,97637.03
2017-11-08T20:44:11.064Z,97641.42
2017-11-08T20:46:38.827Z,97644.52
2017-11-08T20:49:06.910Z,97642.68
2017-11-08T20:51:35.175Z,97648.77
2017-11-08T20:54:03.464Z,97650.34
2017-11-08T20:56:31.936Z,97649.86
2017-11-08T20:58:59.916Z,97654.08
2017-11-08T21:01:27.768Z,97649.19
2017-11-08T21:03:56.067Z,97654.58
2017-11-08T21:06:23.823Z,97655.34
2017-11-08T21:08:51.578Z,97657.17
2017-11-08T21:11:19.444Z,97658.64
2017-11-08T21:13:47.675Z,97651.73
2017-11-08T21:16:15.582Z,97656.46
2017-11-08T21:18:43.653Z,97657.19
2017-11-08T21:21:11.702Z,97654.34
2017-11-08T21:23:39.702Z,97644.56
2017-11-08T21:26:07.762Z,97650.97
2017-11-08T21:28:35.527Z,97652.26
2017-11-08T21:31:03.293Z,97659.23
2017-11-08T21:33:31.370Z,97651.56
2017-11-08T21:35:59.123Z,97652.69
2017-11-08T21:38:26.891Z,97647.46
2017-11-08T21:40:54.800Z,97654.28
2017-11-08T21:43:22.518Z,97652.84
2017-11-08T21:45:50.389Z,97655.72
2017-11-08T21:48:18.415Z,97654.05
2017-11-08T21:50:46.225Z,97656.47
2017-11-08T21:53:13.893Z,97652.58
2017-11-08T21:55:41.747Z,97661.53
2017-11-08T21:58:09.531Z,97658.77
2017-11-08T22:00:37.086Z,97659.94
2017-11-08T22:03:05.552Z,97662.46
2017-11-08T22:05:33.314Z,97659.59
2017-11-08T22:08:00.979Z,97657.56
2017-11-08T22:10:28.960Z,97653.62
2017-11-08T22:12:56.674Z,97655.14
2017-11-08T22:15:24.305Z,97664.47
2017-11-08T22:17:52.033Z,97666.67
2017-11-08T22:20:19.593Z,97671.77
2017-11-08T22:22:47.257Z,97673.45
2017-11-08T22:25:14.943Z,97671.30
2017-11-08T22:27:42.520Z,97673.99
2017-11-08T22:30:10.137Z,97677.38
2017-11-08T22:32:37.899Z,97681.88
2017-11-08T22:35:05.467Z,97678.66
2017-11-08T22:37:33.019Z,97672.31
2017-11-08T22:40:00.876Z,97677.64
2017-11-08T22:42:28.446Z,97678.99
2017-11-08T22:44:56.017Z,97682.95
2017-11-08T22:47:23.607Z,97689.48
2017-11-08T22:49:51.168Z,97688.69
2017-11-08T22:52:19.708Z,97680.22
2017-11-08T22:54:47.267Z,97687.02
2017-11-08T22:57:14.784Z,97681.97
2017-11-08T22:59:42.295Z,97682.80
2017-11-08T23:02:10.272Z,97677.19
2017-11-08T23:04:37.813Z,97677.58
2017-11-08T23:07:05.368Z,97679.23
2017-11-08T23:09:33.437Z,97679.83
2017-11-08T23:12:00.959Z,97678.29
2017-11-08T23:14:28.480Z,97680.69
2017-11-08T23:16:56.038Z,97686.66
2017-11-08T23:19:23.565Z,97675.95
2017-11-08T23:21:51.130Z,97676.03
2017-11-08T23:24:18.715Z,97677.12
2017-11-08T23:26:46.251Z,97674.00
2017-11-08T23:29:13.803Z,97675.61
2017-11-08T23:31:41.571Z,97682.61
2017-11-08T23:34:09.107Z,97679.74
2017-11-08T23:36:36.637Z,97681.28
2017-11-08T23:39:04.395Z,97678.97
2017-11-08T23:41:32.013Z,97686.75
2017-11-08T23:43:59.574Z,97683.05
2017-11-08T23:46:27.335Z,97680.91
2017-11-08T23:48:54.871Z,97674.02
2017-11-08T23:51:25.163Z,97674.34
2017-11-08T23:53:52.982Z,97673.84
2017-11-08T23:56:32.329Z,97673.58
2017-11-08T23:59:00.475Z,97679.34
